createdAt,value
2018-05-25T00:00:58.101Z,819.57
2018-05-25T00:01:58.117Z,819.59
2018-05-25T00:02:58.132Z,819.65
2018-05-25T00:03:58.147Z,819.59
2018-05-25T00:04:58.161Z,819.60
2018-05-25T00:05:58.177Z,819.60
2018-05-25T00:06:58.192Z,819.57
2018-05-25T00:07:58.213Z,819.57
2018-05-25T00:08:58.220Z,819.52
2018-05-25T00:09:58.238Z,819.56
2018-05-25T00:10:58.248Z,819.53
2018-05-25T00:11:58.267Z,819.50
2018-05-25T00:12:58.278Z,819.53
2018-05-25T00:13:58.293Z,819.48
2018-05-25T00:14:58.308Z,819.48
2018-05-25T00:15:58.327Z,819.45
2018-05-25T00:16:58.339Z,819.43
2018-05-25T00:17:58.356Z,819.45
2018-05-25T00:18:58.368Z,819.45
2018-05-25T00:19:58.388Z,819.45
2018-05-25T00:20:58.395Z,819.43
2018-05-25T00:21:58.409Z,819.46
2018-05-25T00:22:58.427Z,819.47
2018-05-25T00:23:58.440Z,819.43
2018-05-25T00:24:58.453Z,819.40
2018-05-25T00:25:58.470Z,819.43
2018-05-25T00:26:58.486Z,819.40
2018-05-25T00:27:58.503Z,819.44
2018-05-25T00:28:58.517Z,819.39
2018-05-25T00:29:58.530Z,819.41
2018-05-25T00:30:58.543Z,819.38
2018-05-25T00:31:58.562Z,819.35
2018-05-25T00:32:58.572Z,819.37
2018-05-25T00:33:58.586Z,819.33
2018-05-25T00:34:58.600Z,819.33
2018-05-25T00:35:58.619Z,819.32
2018-05-25T00:36:58.631Z,819.31
2018-05-25T00:37:58.644Z,819.31
2018-05-25T00:38:58.659Z,819.30
2018-05-25T00:39:58.674Z,819.34
2018-05-25T00:40:58.690Z,819.34
2018-05-25T00:41:58.704Z,819.34
2018-05-25T00:42:58.718Z,819.32
2018-05-25T00:43:58.733Z,819.36
2018-05-25T00:44:58.746Z,819.34
2018-05-25T00:45:58.762Z,819.31
2018-05-25T00:46:58.776Z,819.32
2018-05-25T00:47:58.791Z,819.26
2018-05-25T00:48:58.803Z,819.26
2018-05-25T00:49:58.821Z,819.23
2018-05-25T00:50:58.832Z,819.26
2018-05-25T00:51:58.847Z,819.24
2018-05-25T00:52:58.863Z,819.25
2018-05-25T00:53:58.880Z,819.23
2018-05-25T00:54:58.896Z,819.26
2018-05-25T00:55:58.907Z,819.26
2018-05-25T00:56:58.921Z,819.23
2018-05-25T00:57:58.937Z,819.23
2018-05-25T00:58:58.952Z,819.24
2018-05-25T00:59:58.965Z,819.25
2018-05-25T01:00:58.976Z,819.19
2018-05-25T01:01:58.993Z,819.21
2018-05-25T01:02:59.006Z,819.22
2018-05-25T01:03:59.022Z,819.20
2018-05-25T01:04:59.035Z,819.20
2018-05-25T01:05:59.049Z,819.18
2018-05-25T01:06:59.066Z,819.22
2018-05-25T01:07:59.080Z,819.17
2018-05-25T01:08:59.092Z,819.20
2018-05-25T01:09:59.107Z,819.18
2018-05-25T01:10:59.123Z,819.18
2018-05-25T01:11:59.134Z,819.18
2018-05-25T01:12:59.148Z,819.22
2018-05-25T01:13:59.163Z,819.23
2018-05-25T01:14:59.177Z,819.21
2018-05-25T01:15:59.192Z,819.21
2018-05-25T01:16:59.205Z,819.22
2018-05-25T01:17:59.220Z,819.22
2018-05-25T01:18:59.233Z,819.24
2018-05-25T01:19:59.249Z,819.22
2018-05-25T01:20:59.261Z,819.24
2018-05-25T01:21:59.273Z,819.22
2018-05-25T01:22:59.289Z,819.23
2018-05-25T01:23:59.309Z,819.26
2018-05-25T01:24:59.317Z,819.26
2018-05-25T01:25:59.339Z,819.26
2018-05-25T01:26:59.346Z,819.23
2018-05-25T01:27:59.360Z,819.25
2018-05-25T01:28:59.371Z,819.25
2018-05-25T01:29:59.385Z,819.20
2018-05-25T01:30:59.400Z,819.22
2018-05-25T01:31:59.414Z,819.15
2018-05-25T01:32:59.428Z,819.18
2018-05-25T01:33:59.442Z,819.22
2018-05-25T01:34:59.457Z,819.23
2018-05-25T01:35:59.470Z,819.23
2018-05-25T01:36:59.483Z,819.20
2018-05-25T01:37:59.497Z,819.19
2018-05-25T01:38:59.509Z,819.13
2018-05-25T01:39:59.526Z,819.16
2018-05-25T01:40:59.538Z,819.20
2018-05-25T01:41:59.550Z,819.22
2018-05-25T01:42:59.566Z,819.20
2018-05-25T01:43:59.578Z,819.24
2018-05-25T01:44:59.590Z,819.25
2018-05-25T01:45:59.605Z,819.27
2018-05-25T01:46:59.618Z,819.24
2018-05-25T01:47:59.633Z,819.22
2018-05-25T01:48:59.645Z,819.27
2018-05-25T01:49:59.660Z,819.25
2018-05-25T01:50:59.729Z,819.21
2018-05-25T01:51:59.691Z,819.27
2018-05-25T01:52:59.701Z,819.27
2018-05-25T01:53:59.714Z,819.28
2018-05-25T01:54:59.730Z,819.27
2018-05-25T01:55:59.743Z,819.24
2018-05-25T01:56:59.757Z,819.24
2018-05-25T01:57:59.770Z,819.25
2018-05-25T01:58:59.784Z,819.23
2018-05-25T01:59:59.802Z,819.21
2018-05-25T02:00:59.810Z,819.19
2018-05-25T02:01:59.825Z,819.20
2018-05-25T02:02:59.839Z,819.19
2018-05-25T02:03:59.852Z,819.19
2018-05-25T02:04:59.865Z,819.15
2018-05-25T02:05:59.879Z,819.13
2018-05-25T02:06:59.892Z,819.09
2018-05-25T02:07:59.907Z,819.14
2018-05-25T02:08:59.923Z,819.16
2018-05-25T02:09:59.933Z,819.14
2018-05-25T02:10:59.947Z,819.14
2018-05-25T02:11:59.966Z,819.18
2018-05-25T02:12:59.974Z,819.18
2018-05-25T02:13:59.992Z,819.18
2018-05-25T02:15:00.004Z,819.17
2018-05-25T02:16:00.018Z,819.17
2018-05-25T02:17:00.028Z,819.15
2018-05-25T02:18:00.043Z,819.12
2018-05-25T02:19:00.057Z,819.17
2018-05-25T02:20:00.071Z,819.13
2018-05-25T02:21:00.083Z,819.11
2018-05-25T02:22:00.100Z,819.11
2018-05-25T02:23:00.111Z,819.09
2018-05-25T02:24:00.124Z,819.05
2018-05-25T02:25:00.136Z,819.05
2018-05-25T02:26:00.151Z,819.03
2018-05-25T02:27:00.165Z,819.04
2018-05-25T02:28:00.178Z,819.06
2018-05-25T02:29:00.192Z,819.02
2018-05-25T02:30:00.207Z,819.02
2018-05-25T02:31:00.221Z,819.02
2018-05-25T02:32:00.232Z,819.03
2018-05-25T02:33:00.246Z,819.00
2018-05-25T02:34:00.258Z,819.00
2018-05-25T02:35:00.272Z,819.02
2018-05-25T02:36:00.293Z,819.00
2018-05-25T02:37:00.299Z,818.96
2018-05-25T02:38:00.311Z,818.97
2018-05-25T02:39:00.326Z,819.00
2018-05-25T02:40:00.340Z,818.93
2018-05-25T02:41:00.354Z,818.99
2018-05-25T02:42:00.367Z,819.00
2018-05-25T02:43:00.381Z,818.97
2018-05-25T02:44:00.397Z,818.98
2018-05-25T02:45:00.408Z,818.99
2018-05-25T02:46:00.421Z,819.00
2018-05-25T02:47:00.435Z,818.97
2018-05-25T02:48:00.448Z,818.98
2018-05-25T02:49:00.465Z,819.00
2018-05-25T02:50:00.476Z,818.98
2018-05-25T02:51:00.487Z,819.03
2018-05-25T02:52:00.504Z,819.02
2018-05-25T02:53:00.516Z,819.03
2018-05-25T02:54:00.529Z,819.03
2018-05-25T02:55:00.545Z,819.07
2018-05-25T02:56:00.556Z,819.01
2018-05-25T02:57:00.571Z,819.00
2018-05-25T02:58:00.584Z,818.98
2018-05-25T02:59:00.597Z,818.99
2018-05-25T03:00:00.612Z,819.01
2018-05-25T03:01:00.626Z,819.02
2018-05-25T03:02:00.636Z,819.03
2018-05-25T03:03:00.667Z,819.01
2018-05-25T03:04:00.666Z,819.00
2018-05-25T03:05:00.678Z,819.00
2018-05-25T03:06:00.692Z,819.01
2018-05-25T03:07:00.706Z,819.01
2018-05-25T03:08:00.721Z,818.99
2018-05-25T03:09:00.731Z,818.99
2018-05-25T03:10:00.746Z,818.97
2018-05-25T03:11:00.759Z,818.97
2018-05-25T03:12:00.773Z,818.96
2018-05-25T03:13:00.785Z,818.97
2018-05-25T03:14:00.802Z,818.95
2018-05-25T03:15:00.814Z,818.97
2018-05-25T03:16:00.828Z,818.96
2018-05-25T03:17:00.841Z,818.98
2018-05-25T03:18:00.858Z,818.95
2018-05-25T03:19:00.871Z,818.95
2018-05-25T03:20:00.882Z,818.97
2018-05-25T03:21:00.893Z,818.97
2018-05-25T03:22:00.907Z,818.99
2018-05-25T03:23:00.923Z,818.97
2018-05-25T03:24:00.936Z,818.97
2018-05-25T03:25:00.949Z,818.94
2018-05-25T03:26:00.986Z,818.93
2018-05-25T03:27:00.975Z,818.96
2018-05-25T03:28:00.991Z,818.92
2018-05-25T03:29:01.003Z,818.95
2018-05-25T03:30:01.024Z,818.94
2018-05-25T03:31:01.031Z,818.98
2018-05-25T03:32:01.045Z,818.97
2018-05-25T03:33:01.057Z,818.98
2018-05-25T03:34:01.073Z,819.01
2018-05-25T03:35:01.082Z,818.97
2018-05-25T03:36:01.097Z,818.97
2018-05-25T03:37:01.111Z,818.96
2018-05-25T03:38:01.126Z,819.02
2018-05-25T03:39:01.139Z,819.01
2018-05-25T03:40:01.151Z,818.96
2018-05-25T03:41:01.164Z,818.99
2018-05-25T03:42:01.181Z,818.97
2018-05-25T03:43:01.191Z,818.97
2018-05-25T03:44:01.205Z,818.99
2018-05-25T03:45:01.217Z,818.98
2018-05-25T03:46:01.233Z,818.98
2018-05-25T03:47:01.246Z,818.99
2018-05-25T03:48:01.260Z,819.01
2018-05-25T03:49:01.273Z,818.94
2018-05-25T03:50:01.287Z,818.97
2018-05-25T03:51:01.301Z,818.97
2018-05-25T03:52:01.314Z,818.98
2018-05-25T03:53:01.328Z,818.95
2018-05-25T03:54:01.340Z,818.93
2018-05-25T03:55:01.356Z,818.94
2018-05-25T03:56:01.369Z,818.94
2018-05-25T03:57:01.380Z,818.99
2018-05-25T03:58:01.394Z,818.94
2018-05-25T03:59:01.408Z,818.96
2018-05-25T04:00:01.425Z,818.93
2018-05-25T04:01:01.435Z,818.94
2018-05-25T04:02:01.449Z,818.93
2018-05-25T04:03:01.463Z,818.94
2018-05-25T04:04:01.476Z,818.93
2018-05-25T04:05:01.489Z,818.96
2018-05-25T04:06:01.502Z,818.91
2018-05-25T04:07:01.516Z,818.90
2018-05-25T04:08:01.535Z,818.90
2018-05-25T04:09:01.542Z,818.90
2018-05-25T04:10:01.557Z,818.88
2018-05-25T04:11:01.572Z,818.90
2018-05-25T04:12:01.583Z,818.90
2018-05-25T04:13:01.596Z,818.89
2018-05-25T04:14:01.610Z,818.91
2018-05-25T04:15:01.673Z,818.89
2018-05-25T04:16:01.637Z,818.87
2018-05-25T04:17:01.652Z,818.91
2018-05-25T04:18:01.665Z,818.88
2018-05-25T04:19:01.679Z,818.85
2018-05-25T04:20:01.691Z,818.86
2018-05-25T04:21:01.704Z,818.84
2018-05-25T04:22:01.719Z,818.89
2018-05-25T04:23:01.730Z,818.90
2018-05-25T04:24:01.745Z,818.86
2018-05-25T04:25:01.759Z,818.86
2018-05-25T04:26:01.772Z,818.85
2018-05-25T04:27:01.787Z,818.83
2018-05-25T04:28:01.798Z,818.82
2018-05-25T04:29:01.811Z,818.80
2018-05-25T04:30:01.824Z,818.83
2018-05-25T04:31:01.837Z,818.82
2018-05-25T04:32:01.852Z,818.81
2018-05-25T04:33:01.863Z,818.80
2018-05-25T04:34:01.879Z,818.80
2018-05-25T04:35:01.897Z,818.78
2018-05-25T04:36:01.915Z,818.77
2018-05-25T04:37:01.922Z,818.78
2018-05-25T04:38:01.932Z,818.75
2018-05-25T04:39:01.946Z,818.78
2018-05-25T04:40:01.960Z,818.82
2018-05-25T04:41:01.972Z,818.79
2018-05-25T04:42:01.985Z,818.85
2018-05-25T04:43:02.000Z,818.85
2018-05-25T04:44:02.014Z,818.85
2018-05-25T04:45:02.026Z,818.86
2018-05-25T04:46:02.041Z,818.84
2018-05-25T04:47:02.055Z,818.83
2018-05-25T04:48:02.068Z,818.84
2018-05-25T04:49:02.085Z,818.84
2018-05-25T04:50:02.095Z,818.87
2018-05-25T04:51:02.111Z,818.86
2018-05-25T04:52:02.125Z,818.87
2018-05-25T04:53:02.137Z,818.91
2018-05-25T04:54:02.148Z,818.92
2018-05-25T04:55:02.164Z,818.85
2018-05-25T04:56:02.176Z,818.93
2018-05-25T04:57:02.188Z,818.92
2018-05-25T04:58:02.205Z,818.94
2018-05-25T04:59:02.219Z,818.93
2018-05-25T05:00:02.232Z,818.94
2018-05-25T05:01:02.243Z,818.97
2018-05-25T05:02:02.258Z,818.99
2018-05-25T05:03:02.271Z,818.98
2018-05-25T05:04:02.286Z,818.96
2018-05-25T05:05:02.367Z,818.98
2018-05-25T05:06:02.314Z,818.98
2018-05-25T05:07:02.326Z,818.93
2018-05-25T05:08:02.340Z,818.99
2018-05-25T05:09:02.351Z,818.94
2018-05-25T05:10:02.369Z,818.95
2018-05-25T05:11:02.380Z,818.92
2018-05-25T05:12:02.393Z,818.94
2018-05-25T05:13:02.408Z,818.96
2018-05-25T05:14:02.430Z,818.95
2018-05-25T05:15:02.440Z,818.94
2018-05-25T05:16:02.447Z,818.93
2018-05-25T05:17:02.459Z,818.93
2018-05-25T05:18:02.474Z,818.95
2018-05-25T05:19:02.492Z,818.92
2018-05-25T05:20:02.502Z,818.92
2018-05-25T05:21:02.514Z,818.88
2018-05-25T05:22:02.529Z,818.89
2018-05-25T05:23:02.569Z,818.87
2018-05-25T05:24:02.556Z,818.86
2018-05-25T05:25:02.571Z,818.88
2018-05-25T05:26:02.587Z,818.84
2018-05-25T05:27:02.602Z,818.86
2018-05-25T05:28:02.611Z,818.82
2018-05-25T05:29:02.624Z,818.83
2018-05-25T05:30:02.640Z,818.81
2018-05-25T05:31:02.651Z,818.86
2018-05-25T05:32:02.664Z,818.83
2018-05-25T05:33:02.678Z,818.79
2018-05-25T05:34:02.692Z,818.82
2018-05-25T05:35:02.704Z,818.78
2018-05-25T05:36:02.719Z,818.80
2018-05-25T05:37:02.731Z,818.77
2018-05-25T05:38:02.745Z,818.80
2018-05-25T05:39:02.761Z,818.76
2018-05-25T05:40:02.774Z,818.78
2018-05-25T05:41:02.786Z,818.76
2018-05-25T05:42:02.799Z,818.76
2018-05-25T05:43:02.813Z,818.78
2018-05-25T05:44:02.828Z,818.77
2018-05-25T05:45:02.842Z,818.79
2018-05-25T05:46:02.855Z,818.80
2018-05-25T05:47:02.868Z,818.81
2018-05-25T05:48:02.882Z,818.85
2018-05-25T05:49:02.892Z,818.82
2018-05-25T05:50:02.907Z,818.82
2018-05-25T05:51:02.929Z,818.76
2018-05-25T05:52:02.933Z,818.78
2018-05-25T05:53:02.949Z,818.80
2018-05-25T05:54:02.963Z,818.85
2018-05-25T05:55:02.976Z,818.82
2018-05-25T05:56:02.994Z,818.81
2018-05-25T05:57:03.003Z,818.82
2018-05-25T05:58:03.017Z,818.80
2018-05-25T05:59:03.032Z,818.84
2018-05-25T06:00:03.046Z,818.84
2018-05-25T06:01:03.057Z,818.82
2018-05-25T06:02:03.073Z,818.86
2018-05-25T06:03:03.085Z,818.85
2018-05-25T06:04:03.101Z,818.86
2018-05-25T06:05:03.116Z,818.83
2018-05-25T06:06:03.126Z,818.86
2018-05-25T06:07:03.143Z,818.88
2018-05-25T06:08:03.156Z,818.88
2018-05-25T06:09:03.171Z,818.84
2018-05-25T06:10:03.188Z,818.86
2018-05-25T06:11:03.196Z,818.86
2018-05-25T06:12:03.211Z,818.87
2018-05-25T06:13:03.226Z,818.88
2018-05-25T06:14:03.240Z,818.86
2018-05-25T06:15:03.254Z,818.89
2018-05-25T06:16:03.267Z,818.91
2018-05-25T06:17:03.285Z,818.96
2018-05-25T06:18:03.296Z,818.93
2018-05-25T06:19:03.309Z,818.92
2018-05-25T06:20:03.358Z,818.91
2018-05-25T06:21:03.340Z,818.92
2018-05-25T06:22:03.351Z,818.92
2018-05-25T06:23:03.366Z,818.92
2018-05-25T06:24:03.381Z,818.96
2018-05-25T06:25:03.394Z,818.97
2018-05-25T06:26:03.408Z,818.95
2018-05-25T06:27:03.429Z,818.98
2018-05-25T06:28:03.446Z,819.00
2018-05-25T06:29:03.452Z,819.00
2018-05-25T06:30:03.465Z,818.99
2018-05-25T06:31:03.479Z,818.97
2018-05-25T06:32:03.494Z,819.03
2018-05-25T06:33:03.507Z,819.03
2018-05-25T06:34:03.522Z,819.04
2018-05-25T06:35:03.534Z,819.07
2018-05-25T06:36:03.551Z,819.05
2018-05-25T06:37:03.563Z,819.01
2018-05-25T06:38:03.577Z,819.02
2018-05-25T06:39:03.592Z,819.05
2018-05-25T06:40:03.606Z,819.05
2018-05-25T06:41:03.621Z,819.05
2018-05-25T06:42:03.641Z,819.01
2018-05-25T06:43:03.650Z,819.03
2018-05-25T06:44:03.666Z,819.03
2018-05-25T06:45:03.681Z,819.01
2018-05-25T06:46:03.692Z,819.00
2018-05-25T06:47:03.707Z,819.02
2018-05-25T06:48:03.723Z,819.04
2018-05-25T06:49:03.735Z,819.02
2018-05-25T06:50:03.749Z,819.07
2018-05-25T06:51:03.764Z,819.08
2018-05-25T06:52:03.780Z,819.08
2018-05-25T06:53:03.791Z,819.09
2018-05-25T06:54:03.805Z,819.07
2018-05-25T06:55:03.823Z,819.13
2018-05-25T06:56:03.838Z,819.15
2018-05-25T06:57:03.853Z,819.14
2018-05-25T06:58:03.902Z,819.17
2018-05-25T06:59:03.883Z,819.18
2018-05-25T07:00:03.894Z,819.18
2018-05-25T07:01:03.906Z,819.19
2018-05-25T07:02:03.922Z,819.21
2018-05-25T07:03:03.933Z,819.20
2018-05-25T07:04:04.023Z,819.19
2018-05-25T07:05:03.963Z,819.21
2018-05-25T07:06:03.978Z,819.22
2018-05-25T07:07:03.994Z,819.22
2018-05-25T07:08:04.009Z,819.20
2018-05-25T07:09:04.020Z,819.20
2018-05-25T07:10:04.036Z,819.18
2018-05-25T07:11:04.050Z,819.16
2018-05-25T07:12:04.063Z,819.17
2018-05-25T07:13:04.078Z,819.13
2018-05-25T07:14:04.091Z,819.15
2018-05-25T07:15:04.108Z,819.14
2018-05-25T07:16:04.120Z,819.13
2018-05-25T07:17:04.183Z,819.11
2018-05-25T07:18:04.150Z,819.12
2018-05-25T07:19:04.164Z,819.10
2018-05-25T07:20:04.178Z,819.11
2018-05-25T07:21:04.191Z,819.08
2018-05-25T07:22:04.207Z,819.10
2018-05-25T07:23:04.223Z,819.10
2018-05-25T07:24:04.236Z,819.09
2018-05-25T07:25:04.250Z,819.12
2018-05-25T07:26:04.263Z,819.06
2018-05-25T07:27:04.279Z,819.10
2018-05-25T07:28:04.296Z,819.10
2018-05-25T07:29:04.305Z,819.07
2018-05-25T07:30:04.323Z,819.07
2018-05-25T07:31:04.336Z,819.08
2018-05-25T07:32:04.350Z,819.11
2018-05-25T07:33:04.366Z,819.10
2018-05-25T07:34:04.382Z,819.14
2018-05-25T07:35:04.393Z,819.13
2018-05-25T07:36:04.411Z,819.14
2018-05-25T07:37:04.429Z,819.18
2018-05-25T07:38:04.439Z,819.11
2018-05-25T07:39:04.454Z,819.12
2018-05-25T07:40:04.469Z,819.13
2018-05-25T07:41:04.481Z,819.10
2018-05-25T07:42:04.496Z,819.11
2018-05-25T07:43:04.511Z,819.12
2018-05-25T07:44:04.530Z,819.11
2018-05-25T07:45:04.542Z,819.13
2018-05-25T07:46:04.557Z,819.11
2018-05-25T07:47:04.571Z,819.13
2018-05-25T07:48:04.587Z,819.12
2018-05-25T07:49:04.598Z,819.14
2018-05-25T07:50:04.614Z,819.11
2018-05-25T07:51:04.630Z,819.11
2018-05-25T07:52:04.648Z,819.11
2018-05-25T07:53:04.660Z,819.13
2018-05-25T07:54:04.673Z,819.15
2018-05-25T07:55:04.691Z,819.16
2018-05-25T07:56:04.706Z,819.17
2018-05-25T07:57:04.718Z,819.17
2018-05-25T07:58:04.736Z,819.16
2018-05-25T07:59:04.749Z,819.14
2018-05-25T08:00:04.764Z,819.16
2018-05-25T08:01:04.779Z,819.16
2018-05-25T08:02:04.794Z,819.15
2018-05-25T08:03:04.813Z,819.10
2018-05-25T08:04:04.823Z,819.14
2018-05-25T08:05:04.838Z,819.09
2018-05-25T08:06:04.853Z,819.16
2018-05-25T08:07:04.869Z,819.12
2018-05-25T08:08:04.884Z,819.14
2018-05-25T08:09:04.901Z,819.12
2018-05-25T08:10:04.914Z,819.16
2018-05-25T08:11:04.929Z,819.13
2018-05-25T08:12:04.943Z,819.17
2018-05-25T08:13:04.959Z,819.12
2018-05-25T08:14:04.974Z,819.17
2018-05-25T08:15:04.989Z,819.14
2018-05-25T08:16:05.005Z,819.15
2018-05-25T08:17:05.019Z,819.15
2018-05-25T08:18:05.036Z,819.15
2018-05-25T08:19:05.049Z,819.12
2018-05-25T08:20:05.067Z,819.19
2018-05-25T08:21:05.082Z,819.18
2018-05-25T08:22:05.099Z,819.15
2018-05-25T08:23:05.113Z,819.17
2018-05-25T08:24:05.132Z,819.17
2018-05-25T08:25:05.142Z,819.16
2018-05-25T08:26:05.157Z,819.17
2018-05-25T08:27:05.173Z,819.17
2018-05-25T08:28:05.192Z,819.15
2018-05-25T08:29:05.202Z,819.18
2018-05-25T08:30:05.221Z,819.16
2018-05-25T08:31:05.237Z,819.15
2018-05-25T08:32:05.251Z,819.17
2018-05-25T08:33:05.265Z,819.17
2018-05-25T08:34:05.281Z,819.19
2018-05-25T08:35:05.301Z,819.18
2018-05-25T08:36:05.313Z,819.16
2018-05-25T08:37:05.327Z,819.20
2018-05-25T08:38:05.344Z,819.15
2018-05-25T08:39:05.360Z,819.16
2018-05-25T08:40:05.376Z,819.19
2018-05-25T08:41:05.389Z,819.16
2018-05-25T08:42:05.408Z,819.18
2018-05-25T08:43:05.423Z,819.20
2018-05-25T08:44:05.455Z,819.18
2018-05-25T08:45:05.454Z,819.17
2018-05-25T08:46:05.476Z,819.20
2018-05-25T08:47:05.484Z,819.17
2018-05-25T08:48:05.502Z,819.18
2018-05-25T08:49:05.517Z,819.14
2018-05-25T08:50:05.533Z,819.13
2018-05-25T08:51:05.550Z,819.18
2018-05-25T08:52:05.564Z,819.21
2018-05-25T08:53:05.580Z,819.16
2018-05-25T08:54:05.597Z,819.21
2018-05-25T08:55:05.631Z,819.15
2018-05-25T08:56:05.627Z,819.15
2018-05-25T08:57:05.640Z,819.18
2018-05-25T08:58:05.663Z,819.13
2018-05-25T08:59:05.675Z,819.19
2018-05-25T09:00:05.690Z,819.16
2018-05-25T09:01:05.705Z,819.11
2018-05-25T09:02:05.722Z,819.11
2018-05-25T09:03:05.738Z,819.16
2018-05-25T09:04:05.754Z,819.14
2018-05-25T09:05:05.769Z,819.12
2018-05-25T09:06:05.788Z,819.16
2018-05-25T09:07:05.800Z,819.14
2018-05-25T09:08:05.820Z,819.19
2018-05-25T09:09:05.834Z,819.14
2018-05-25T09:10:05.850Z,819.17
2018-05-25T09:11:05.870Z,819.15
2018-05-25T09:12:05.884Z,819.18
2018-05-25T09:13:05.899Z,819.17
2018-05-25T09:14:05.916Z,819.14
2018-05-25T09:15:05.937Z,819.18
2018-05-25T09:16:05.947Z,819.13
2018-05-25T09:17:05.961Z,819.14
2018-05-25T09:18:05.979Z,819.13
2018-05-25T09:19:05.999Z,819.13
2018-05-25T09:20:06.011Z,819.08
2018-05-25T09:21:06.030Z,819.12
2018-05-25T09:22:06.044Z,819.13
2018-05-25T09:23:06.061Z,819.20
2018-05-25T09:24:06.079Z,819.22
2018-05-25T09:25:06.092Z,819.18
2018-05-25T09:26:06.110Z,819.17
2018-05-25T09:27:06.131Z,819.17
2018-05-25T09:28:06.147Z,819.14
2018-05-25T09:29:06.160Z,819.13
2018-05-25T09:30:06.178Z,819.19
2018-05-25T09:31:06.195Z,819.17
2018-05-25T09:32:06.210Z,819.18
2018-05-25T09:33:06.226Z,819.14
2018-05-25T09:34:06.245Z,819.10
2018-05-25T09:35:06.259Z,819.13
2018-05-25T09:36:06.279Z,819.13
2018-05-25T09:37:06.293Z,819.11
2018-05-25T09:38:06.309Z,819.14
2018-05-25T09:39:06.331Z,819.10
2018-05-25T09:40:06.344Z,819.15
2018-05-25T09:41:06.360Z,819.13
2018-05-25T09:42:06.377Z,819.16
2018-05-25T09:43:06.395Z,819.10
2018-05-25T09:44:06.414Z,819.10
2018-05-25T09:45:06.426Z,819.06
2018-05-25T09:46:06.449Z,819.12
2018-05-25T09:47:06.462Z,819.09
2018-05-25T09:48:06.480Z,819.14
2018-05-25T09:49:06.495Z,819.10
2018-05-25T09:50:06.514Z,819.08
2018-05-25T09:51:06.531Z,819.07
2018-05-25T09:52:06.550Z,819.09
2018-05-25T09:53:06.565Z,819.07
2018-05-25T09:54:06.581Z,819.07
2018-05-25T09:55:06.601Z,819.07
2018-05-25T09:56:06.645Z,819.03
2018-05-25T09:57:06.634Z,819.03
2018-05-25T09:58:06.652Z,819.08
2018-05-25T09:59:06.669Z,819.04
2018-05-25T10:00:06.686Z,819.06
2018-05-25T10:01:06.703Z,819.05
2018-05-25T10:02:06.722Z,819.09
2018-05-25T10:03:06.766Z,819.09
2018-05-25T10:04:06.755Z,819.09
2018-05-25T10:05:06.774Z,819.10
2018-05-25T10:06:06.792Z,819.10
2018-05-25T10:07:06.809Z,819.12
2018-05-25T10:08:06.825Z,819.12
2018-05-25T10:09:06.843Z,819.03
2018-05-25T10:10:06.860Z,819.02
2018-05-25T10:11:06.879Z,819.05
2018-05-25T10:12:06.898Z,819.05
2018-05-25T10:13:06.915Z,819.02
2018-05-25T10:14:06.935Z,819.05
2018-05-25T10:15:06.950Z,819.02
2018-05-25T10:16:06.970Z,819.05
2018-05-25T10:17:06.988Z,819.04
2018-05-25T10:18:07.004Z,819.02
2018-05-25T10:19:07.024Z,818.99
2018-05-25T10:20:07.041Z,819.02
2018-05-25T10:21:07.059Z,819.08
2018-05-25T10:22:07.078Z,819.05
2018-05-25T10:23:07.097Z,819.07
2018-05-25T10:24:07.115Z,819.06
2018-05-25T10:25:07.131Z,819.09
2018-05-25T10:26:07.148Z,819.08
2018-05-25T10:27:07.169Z,819.08
2018-05-25T10:28:07.186Z,819.07
2018-05-25T10:29:07.207Z,819.04
2018-05-25T10:30:07.224Z,819.07
2018-05-25T10:31:07.243Z,819.06
2018-05-25T10:32:07.262Z,819.06
2018-05-25T10:33:07.277Z,819.05
2018-05-25T10:34:07.298Z,819.09
2018-05-25T10:35:07.347Z,819.09
2018-05-25T10:36:07.336Z,819.07
2018-05-25T10:37:07.352Z,819.12
2018-05-25T10:38:07.372Z,819.03
2018-05-25T10:39:07.390Z,819.14
2018-05-25T10:40:07.409Z,819.07
2018-05-25T10:41:07.554Z,819.07
2018-05-25T10:42:07.445Z,819.06
2018-05-25T10:43:07.465Z,819.03
2018-05-25T10:44:07.485Z,819.06
2018-05-25T10:45:07.504Z,819.11
2018-05-25T10:46:07.520Z,819.08
2018-05-25T10:47:07.540Z,819.06
2018-05-25T10:48:07.559Z,819.09
2018-05-25T10:49:07.579Z,819.12
2018-05-25T10:50:07.598Z,819.15
2018-05-25T10:51:07.617Z,819.16
2018-05-25T10:52:07.638Z,819.17
2018-05-25T10:53:07.653Z,819.15
2018-05-25T10:54:07.674Z,819.14
2018-05-25T10:55:07.693Z,819.13
2018-05-25T10:56:07.714Z,819.20
2018-05-25T10:57:07.730Z,819.14
2018-05-25T10:58:07.750Z,819.16
2018-05-25T10:59:07.771Z,819.13
2018-05-25T11:00:07.789Z,819.13
2018-05-25T11:01:07.808Z,819.22
2018-05-25T11:02:07.828Z,819.18
2018-05-25T11:03:07.845Z,819.14
2018-05-25T11:04:07.864Z,819.15
2018-05-25T11:05:07.891Z,819.14
2018-05-25T11:06:07.905Z,819.13
2018-05-25T11:07:07.923Z,819.08
2018-05-25T11:08:07.944Z,819.08
2018-05-25T11:09:07.962Z,819.11
2018-05-25T11:10:07.983Z,819.08
2018-05-25T11:11:08.003Z,819.07
2018-05-25T11:12:08.021Z,819.11
2018-05-25T11:13:08.043Z,819.11
2018-05-25T11:14:08.059Z,819.12
2018-05-25T11:15:08.081Z,819.05
2018-05-25T11:16:08.105Z,819.08
2018-05-25T11:17:08.120Z,819.11
2018-05-25T11:18:08.141Z,819.07
2018-05-25T11:19:08.161Z,819.10
2018-05-25T11:20:08.179Z,819.02
2018-05-25T11:21:08.202Z,819.03
2018-05-25T11:22:08.218Z,819.04
2018-05-25T11:23:08.241Z,819.09
2018-05-25T11:24:08.260Z,819.12
2018-05-25T11:25:08.278Z,819.04
2018-05-25T11:26:08.300Z,819.10
2018-05-25T11:27:08.320Z,819.08
2018-05-25T11:28:08.340Z,819.05
2018-05-25T11:29:08.356Z,819.08
2018-05-25T11:30:08.387Z,819.10
2018-05-25T11:31:08.398Z,819.04
2018-05-25T11:32:08.418Z,819.06
2018-05-25T11:33:08.436Z,819.03
2018-05-25T11:34:08.456Z,819.05
2018-05-25T11:35:08.475Z,819.06
2018-05-25T11:36:08.497Z,819.05
2018-05-25T11:37:08.516Z,819.09
2018-05-25T11:38:08.536Z,819.10
2018-05-25T11:39:08.556Z,819.10
2018-05-25T11:40:08.576Z,819.07
2018-05-25T11:41:08.599Z,819.12
2018-05-25T11:42:08.615Z,819.16
2018-05-25T11:43:08.634Z,819.17
2018-05-25T11:44:08.660Z,819.15
2018-05-25T11:45:08.676Z,819.14
2018-05-25T11:46:08.696Z,819.15
2018-05-25T11:47:08.716Z,819.17
2018-05-25T11:48:08.736Z,819.18
2018-05-25T11:49:08.757Z,819.19
2018-05-25T11:50:08.780Z,819.14
2018-05-25T11:51:08.807Z,819.17
2018-05-25T11:52:08.818Z,819.20
2018-05-25T11:53:08.834Z,819.21
2018-05-25T11:54:08.852Z,819.24
2018-05-25T11:55:08.875Z,819.22
2018-05-25T11:56:08.896Z,819.22
2018-05-25T11:57:08.915Z,819.24
2018-05-25T11:58:08.936Z,819.25
2018-05-25T11:59:08.954Z,819.27
2018-05-25T12:00:08.974Z,819.27
2018-05-25T12:01:08.998Z,819.27
2018-05-25T12:02:09.017Z,819.25
2018-05-25T12:03:09.036Z,819.27
2018-05-25T12:04:09.055Z,819.22
2018-05-25T12:05:09.083Z,819.28
2018-05-25T12:06:09.095Z,819.27
2018-05-25T12:07:09.112Z,819.31
2018-05-25T12:08:09.133Z,819.31
2018-05-25T12:09:09.155Z,819.27
2018-05-25T12:10:09.172Z,819.26
2018-05-25T12:11:09.199Z,819.27
2018-05-25T12:12:09.214Z,819.27
2018-05-25T12:13:09.237Z,819.33
2018-05-25T12:14:09.254Z,819.26
2018-05-25T12:15:09.274Z,819.27
2018-05-25T12:16:09.294Z,819.28
2018-05-25T12:17:09.313Z,819.30
2018-05-25T12:18:09.335Z,819.30
2018-05-25T12:19:09.353Z,819.21
2018-05-25T12:20:09.392Z,819.31
2018-05-25T12:21:09.401Z,819.27
2018-05-25T12:22:09.416Z,819.37
2018-05-25T12:23:09.435Z,819.33
2018-05-25T12:24:09.455Z,819.35
2018-05-25T12:25:09.475Z,819.31
2018-05-25T12:26:09.496Z,819.30
2018-05-25T12:27:09.517Z,819.25
2018-05-25T12:28:09.547Z,819.26
2018-05-25T12:29:09.556Z,819.34